Doraville, GA (30340)

7:56 PM EDT on May 27, 2015 (GMT -0400)
Rose Arbor | | Change Station
CLOSE
Current Station
Personal Weather Station
Location: Atlanta, GA
Elevation: 1001 ft
Nearby Weather Stations

Elev 1001 ft 33.89 °N, 84.25 °W | Updated 1 minute ago

Clear
Clear
80.7 °F
Feels Like 84 °F
N
0.0
Wind Variable Wind from South
Gusts 0.0 mph

Today
High -- | Low -- °F
--% Chance of Precip.
Yesterday
High -- | Low -- °F
Precip. -- in
6:28 AM 8:39 PM
Waxing Gibbous, 71% visible
Pressure 30.14 in
Visibility 9.0 miles
Clouds Clear
Heat Index 84 °F
Dew Point 70 °F
Humidity 70%
Rainfall 0.00 in
Snow Depth Not available.
UV 0 out of 12
Pollen .60 out of 12
Air Quality Not available.
Flu Activity Sporadic
METAR KPDK 272353Z 00000KT 9SM CLR 25/19 A3018 RMK AO2 SLP207 T02500194 10278 20250 55003

More Conditions Fewer Conditions

Pressure 30.14 in
Visibility 9.0 miles
Clouds Clear
Heat Index 84 °F
Dew Point 70 °F
Humidity 70%
Rainfall 0.00 in
Snow Depth Not available.
UV 0 out of 12
Pollen .60 out of 12
Air Quality Not available.
Flu Activity Sporadic
METAR KPDK 272353Z 00000KT 9SM CLR 25/19 A3018 RMK AO2 SLP207 T02500194 10278 20250 55003

More Conditions Fewer Conditions

10-Day Weather Forecast

Almanac

Astronomy

May. 27, 2015 Rise Set
Actual Time
Civil Twilight
Nautical Twilight
Astronomical Twilight
Moon
Length of Visible Light
Length of Day
Tomorrow will be .
, % of the Moon is Illuminated

Today's Extremes

State Highs State Lows

Community

WunderPhotos

Upload Photos

1,824,825 photos uploaded!

WunderBlogs® & News

Nearby

Air Quality

  Air Quality AQ Index Pollutant
Not available.

Snow Depth

Station Depth Elevation

Earthquake Activity

City Distance Mag. Time & Date
Minimum magnitude displayed is 2.5.

Coastal Water Temperatures

Place Temperature

Stations

Nearby Weather Stations

Station Location Temp. Windchill Dew Point Humidity Wind Precip. Elev Updated Type